createdAt,value
2023-09-01T12:04:31.395Z,101182.16
2023-09-01T12:07:01.082Z,101168.72
2023-09-01T12:09:31.765Z,101169.69
2023-09-01T12:12:01.605Z,101164.34
2023-09-01T12:14:29.814Z,101160.56
2023-09-01T12:16:57.792Z,101143.94
2023-09-01T12:19:26.243Z,101147.91
2023-09-01T12:21:55.133Z,101159.94
2023-09-01T12:24:24.222Z,101153.88
2023-09-01T12:26:52.056Z,101142.44
2023-09-01T12:29:20.368Z,101162.63
2023-09-01T12:31:48.049Z,101185.88
2023-09-01T12:34:15.870Z,101164.31
2023-09-01T12:36:43.504Z,101175.13
2023-09-01T12:39:11.078Z,101162.41
2023-09-01T12:41:40.247Z,101160.16
2023-09-01T12:44:07.944Z,101155.31
2023-09-01T12:46:35.610Z,101157.03
2023-09-01T12:49:03.176Z,101166.75
2023-09-01T12:51:30.796Z,101176.06
2023-09-01T12:53:58.367Z,101200.53
2023-09-01T12:56:25.982Z,101176.66
2023-09-01T12:58:55.111Z,101180.22
2023-09-01T13:01:22.738Z,101174.44
2023-09-01T13:03:50.361Z,101163.09
2023-09-01T13:06:18.063Z,101167.69
2023-09-01T13:08:45.628Z,101180.66
2023-09-01T13:11:15.372Z,101182.22
2023-09-01T13:13:43.261Z,101188.66
2023-09-01T13:16:12.969Z,101189.59
2023-09-01T13:18:41.202Z,101185.34
2023-09-01T13:21:09.587Z,101183.56
2023-09-01T13:23:37.189Z,101189.53
2023-09-01T13:26:04.789Z,101182.94
2023-09-01T13:28:33.819Z,101180.31
2023-09-01T13:31:01.761Z,101175.56
2023-09-01T13:33:30.893Z,101180.84
2023-09-01T13:35:58.512Z,101170.56
2023-09-01T13:38:26.135Z,101146.03
2023-09-01T13:40:57.188Z,101174.63
2023-09-01T13:43:24.869Z,101160.25
2023-09-01T13:45:52.472Z,101141.19
2023-09-01T13:48:20.059Z,101109.69
2023-09-01T13:50:49.019Z,101184.97
2023-09-01T13:53:17.057Z,101188.59
2023-09-01T13:55:44.799Z,101192.00
2023-09-01T13:58:12.336Z,101190.63
2023-09-01T14:00:40.034Z,101166.91
2023-09-01T14:03:07.608Z,101169.31
2023-09-01T14:05:35.212Z,101187.03
2023-09-01T14:08:04.314Z,101180.00
2023-09-01T14:10:31.966Z,101175.47
2023-09-01T14:12:59.551Z,101170.44
2023-09-01T14:15:27.167Z,101183.59
2023-09-01T14:17:54.724Z,101169.34
2023-09-01T14:20:22.414Z,101103.50
2023-09-01T14:22:49.981Z,101068.47
2023-09-01T14:25:18.929Z,101050.91
2023-09-01T14:27:46.487Z,101105.88
2023-09-01T14:30:14.106Z,101115.44
2023-09-01T14:32:41.753Z,101094.03
2023-09-01T14:35:09.626Z,101034.06
2023-09-01T14:37:37.226Z,101033.53
2023-09-01T14:40:05.163Z,101034.53
2023-09-01T14:42:34.100Z,101027.81
2023-09-01T14:45:01.725Z,101013.41
2023-09-01T14:47:29.290Z,100992.69
2023-09-01T14:49:56.874Z,100958.16
2023-09-01T14:52:24.479Z,100923.03
2023-09-01T14:54:52.341Z,100933.81
2023-09-01T14:57:19.900Z,100911.63
2023-09-01T14:59:48.824Z,100889.78
2023-09-01T15:02:16.385Z,100866.19
2023-09-01T15:04:43.995Z,100820.59
2023-09-01T22:45:47.342Z,101428.66
